createdAt,value
2023-04-21T00:01:50.116Z,54.20
2023-04-21T00:04:17.943Z,47.47
2023-04-21T00:06:45.582Z,52.07
2023-04-21T00:09:12.241Z,60.97
2023-04-21T00:11:38.996Z,58.63
2023-04-21T00:14:05.610Z,63.50
2023-04-21T00:16:32.199Z,59.40
2023-04-21T00:18:59.274Z,61.43
2023-04-21T00:21:26.750Z,55.60
2023-04-21T00:23:53.451Z,65.80
2023-04-21T00:26:20.910Z,60.07
2023-04-21T00:28:49.270Z,59.60
2023-04-21T00:31:16.196Z,61.60
2023-04-21T00:33:42.843Z,65.67
2023-04-21T00:36:09.495Z,72.10
2023-04-21T00:38:36.409Z,72.93
2023-04-21T00:41:03.072Z,68.37
2023-04-21T00:43:30.387Z,74.87
2023-04-21T00:45:56.958Z,68.20
2023-04-21T00:48:23.638Z,74.50
2023-04-21T00:50:50.180Z,65.27
2023-04-21T00:53:17.540Z,76.27
2023-04-21T00:55:45.863Z,66.17
2023-04-21T00:58:12.475Z,70.83
2023-04-21T01:00:39.656Z,82.80
2023-04-21T01:03:06.801Z,72.87
2023-04-21T01:05:33.577Z,68.97
2023-04-21T01:08:01.049Z,74.57
2023-04-21T01:10:27.650Z,82.77
2023-04-21T01:12:54.218Z,75.80
2023-04-21T01:15:21.045Z,80.57
2023-04-21T01:17:47.826Z,74.53
2023-04-21T01:20:14.834Z,80.63
2023-04-21T01:22:42.195Z,80.73
2023-04-21T01:25:09.087Z,79.73
2023-04-21T01:27:36.145Z,83.57
2023-04-21T01:30:03.585Z,69.70
2023-04-21T01:32:31.393Z,89.37
2023-04-21T01:34:58.500Z,74.73
2023-04-21T01:37:26.828Z,67.07
2023-04-21T01:39:54.794Z,65.50
2023-04-21T01:42:22.353Z,57.50
2023-04-21T01:44:49.637Z,63.33
2023-04-21T01:47:17.686Z,69.83
2023-04-21T01:49:45.631Z,73.83
2023-04-21T01:52:12.551Z,71.97
2023-04-21T01:54:42.935Z,79.03
2023-04-21T01:57:09.682Z,89.73
2023-04-21T01:59:37.185Z,67.07
2023-04-21T02:02:04.033Z,85.07
2023-04-21T02:04:33.390Z,72.00
2023-04-21T02:06:59.989Z,73.83
2023-04-21T02:09:26.613Z,88.77
2023-04-21T02:11:54.998Z,67.40
2023-04-21T02:14:21.453Z,70.00
2023-04-21T02:16:48.044Z,82.37
2023-04-21T02:19:14.742Z,84.30
2023-04-21T02:21:41.205Z,92.87
2023-04-21T02:24:07.860Z,111.90
2023-04-21T02:26:34.378Z,93.90
2023-04-21T02:29:00.943Z,105.07
2023-04-21T02:31:27.957Z,117.13
2023-04-21T02:33:54.729Z,96.63
2023-04-21T02:36:21.684Z,96.63
2023-04-21T02:38:48.346Z,100.83
2023-04-21T02:41:14.965Z,109.10
2023-04-21T02:43:41.648Z,116.70
2023-04-21T02:46:08.463Z,132.70
2023-04-21T02:48:35.642Z,128.77
2023-04-21T02:51:02.199Z,131.13
2023-04-21T02:53:29.097Z,105.57
2023-04-21T02:55:56.426Z,111.60
2023-04-21T02:58:23.389Z,121.00
2023-04-21T03:00:50.220Z,86.60
2023-04-21T03:03:17.062Z,97.53
2023-04-21T03:05:43.774Z,99.20
2023-04-21T03:08:10.434Z,78.80
2023-04-21T03:10:37.552Z,80.87
2023-04-21T03:13:04.125Z,85.70
2023-04-21T03:15:32.055Z,90.70
2023-04-21T03:18:01.703Z,81.70
2023-04-21T03:20:28.708Z,69.13
2023-04-21T03:22:55.291Z,78.57
2023-04-21T03:25:22.034Z,68.80
2023-04-21T03:27:48.873Z,76.13
2023-04-21T03:30:15.556Z,78.77
2023-04-21T03:32:42.197Z,74.30
2023-04-21T03:35:08.787Z,79.73
2023-04-21T03:37:35.386Z,78.03
2023-04-21T03:40:02.091Z,62.50
2023-04-21T03:42:30.190Z,66.23
2023-04-21T03:45:01.099Z,66.83
2023-04-21T03:47:27.953Z,75.57
2023-04-21T03:49:54.431Z,77.23
2023-04-21T03:52:21.079Z,71.07
2023-04-21T03:54:47.775Z,60.40
2023-04-21T03:57:14.343Z,59.07
2023-04-21T03:59:41.156Z,62.30
2023-04-21T04:02:07.888Z,63.37
2023-04-21T04:04:34.689Z,78.83
2023-04-21T04:07:01.463Z,91.70
2023-04-21T04:09:28.092Z,71.87
2023-04-21T04:11:54.646Z,82.37
2023-04-21T04:14:21.230Z,63.37
2023-04-21T04:16:47.816Z,66.43
2023-04-21T04:19:14.493Z,69.00
2023-04-21T04:21:40.990Z,67.53
2023-04-21T04:24:08.365Z,56.80
2023-04-21T04:26:35.514Z,52.53
2023-04-21T04:29:02.410Z,65.50
2023-04-21T04:31:30.357Z,66.63
2023-04-21T04:33:57.354Z,56.80
2023-04-21T04:36:24.496Z,67.67
2023-04-21T04:38:51.267Z,64.23
2023-04-21T04:45:32.959Z,59.40
2023-04-21T04:48:00.396Z,74.90
2023-04-21T04:50:27.134Z,64.10
2023-04-21T04:52:53.685Z,52.60
2023-04-21T04:55:20.331Z,69.83
2023-04-21T04:57:48.231Z,57.93
2023-04-21T05:00:14.913Z,52.90
2023-04-21T05:02:41.868Z,61.67
2023-04-21T05:05:08.916Z,58.37
2023-04-21T05:07:35.664Z,58.90
2023-04-21T05:10:04.266Z,55.60
2023-04-21T05:12:32.240Z,61.20
2023-04-21T05:14:58.864Z,50.30
2023-04-21T05:17:25.803Z,77.60
2023-04-21T05:19:52.500Z,64.47
2023-04-21T05:22:19.065Z,63.93
2023-04-21T05:24:45.633Z,64.80
2023-04-21T05:27:12.200Z,58.17
2023-04-21T05:29:38.774Z,61.23
2023-04-21T05:32:05.714Z,68.10
2023-04-21T05:34:32.462Z,50.87
2023-04-21T05:36:59.040Z,59.10
2023-04-21T05:39:27.136Z,64.27
2023-04-21T05:41:53.687Z,55.60
2023-04-21T05:44:20.387Z,50.27
2023-04-21T05:46:47.238Z,61.17
2023-04-21T05:49:14.484Z,55.70
2023-04-21T05:51:41.322Z,61.33
2023-04-21T05:54:07.889Z,48.40
2023-04-21T05:56:34.421Z,61.40
2023-04-21T05:59:01.189Z,57.37
2023-04-21T06:01:27.832Z,56.90
2023-04-21T06:03:54.710Z,52.33
2023-04-21T06:06:22.392Z,46.37
2023-04-21T06:08:48.904Z,46.53
2023-04-21T06:11:15.598Z,48.80
2023-04-21T06:13:43.580Z,49.37
2023-04-21T06:16:10.305Z,45.40
2023-04-21T06:18:36.908Z,26.77
2023-04-21T06:21:03.567Z,28.63
2023-04-21T06:23:30.100Z,26.20
2023-04-21T06:26:05.101Z,30.57
2023-04-21T06:28:32.242Z,32.50
2023-04-21T06:30:59.085Z,31.43
2023-04-21T06:33:26.857Z,28.37
2023-04-21T06:35:53.790Z,40.77
2023-04-21T06:38:20.808Z,20.70
2023-04-21T06:40:47.355Z,33.27
2023-04-21T06:43:14.192Z,26.13
2023-04-21T06:45:40.721Z,27.63
2023-04-21T06:48:07.457Z,31.90
2023-04-21T06:50:34.023Z,31.27
2023-04-21T06:53:00.581Z,19.87
2023-04-21T06:55:27.120Z,23.70
2023-04-21T06:57:53.675Z,22.47
2023-04-21T07:00:21.107Z,28.77
2023-04-21T07:02:47.986Z,29.07
2023-04-21T07:05:14.566Z,19.93
2023-04-21T07:07:41.414Z,26.77
2023-04-21T07:10:08.254Z,18.60
2023-04-21T07:12:34.789Z,22.00
2023-04-21T07:15:01.292Z,25.90
2023-04-21T07:17:27.786Z,19.33
2023-04-21T07:19:54.358Z,21.77
2023-04-21T07:22:20.940Z,25.03
2023-04-21T07:24:49.186Z,24.50
2023-04-21T07:27:16.099Z,13.80
2023-04-21T07:29:42.655Z,11.20
2023-04-21T07:32:09.336Z,14.70
2023-04-21T07:34:35.963Z,7.97
2023-04-21T07:37:02.564Z,11.97
2023-04-21T07:39:29.412Z,12.90
2023-04-21T07:41:55.966Z,21.57
2023-04-21T07:44:22.548Z,14.13
2023-04-21T07:46:49.034Z,13.33
2023-04-21T07:49:16.766Z,15.53
2023-04-21T07:51:43.357Z,11.27
2023-04-21T07:54:10.069Z,11.33
2023-04-21T07:56:36.591Z,20.07
2023-04-21T07:59:03.155Z,26.03
2023-04-21T08:01:29.676Z,15.93
2023-04-21T08:03:56.328Z,17.27
2023-04-21T08:06:23.134Z,14.03
2023-04-21T08:08:50.317Z,5.17
2023-04-21T08:11:16.898Z,12.70
2023-04-21T08:13:43.625Z,6.97
2023-04-21T08:16:10.393Z,16.27
2023-04-21T08:18:36.964Z,18.80
2023-04-21T08:21:03.589Z,15.23
2023-04-21T08:23:32.348Z,25.67
2023-04-21T08:25:59.094Z,20.43
2023-04-21T08:28:26.031Z,17.00
2023-04-21T08:30:52.602Z,13.27
2023-04-21T08:33:19.314Z,19.10
2023-04-21T08:35:59.276Z,19.40
2023-04-21T08:38:29.477Z,19.40
2023-04-21T08:40:57.810Z,12.57
2023-04-21T08:43:24.277Z,11.17
2023-04-21T08:45:51.230Z,23.97
2023-04-21T08:48:18.736Z,17.57
2023-04-21T08:50:46.749Z,14.20
2023-04-21T08:53:13.949Z,9.40
2023-04-21T08:55:47.826Z,9.27
2023-04-21T08:58:16.195Z,15.60
2023-04-21T09:00:42.829Z,20.57
2023-04-21T09:03:19.458Z,14.00
2023-04-21T09:05:59.472Z,11.57
2023-04-21T09:08:28.028Z,14.20
2023-04-21T09:10:55.254Z,16.30
2023-04-21T09:13:28.926Z,15.37
2023-04-21T09:15:55.515Z,8.67
2023-04-21T09:18:23.277Z,11.63
2023-04-21T09:20:51.726Z,11.43
2023-04-21T09:23:18.556Z,14.63
2023-04-21T09:25:45.947Z,15.57
2023-04-21T09:28:13.778Z,20.30
2023-04-21T09:30:41.114Z,21.87
2023-04-21T09:33:20.140Z,16.97
2023-04-21T09:35:54.273Z,12.87
2023-04-21T09:38:22.463Z,16.13
2023-04-21T09:40:56.899Z,10.07
2023-04-21T09:43:23.661Z,15.53
2023-04-21T09:45:51.013Z,20.57
2023-04-21T09:48:19.491Z,19.63
2023-04-21T09:53:19.260Z,22.30
2023-04-21T09:55:47.588Z,11.40
2023-04-21T09:58:16.033Z,12.20
2023-04-21T10:00:42.897Z,15.87
2023-04-21T10:03:12.010Z,19.17
2023-04-21T10:05:42.095Z,16.90
2023-04-21T10:08:11.875Z,9.63
2023-04-21T10:10:38.788Z,13.10
2023-04-21T10:13:05.631Z,14.43
2023-04-21T10:15:39.073Z,8.37
2023-04-21T10:18:12.376Z,8.23
2023-04-21T10:20:52.856Z,5.17
2023-04-21T10:23:29.304Z,5.17
2023-04-21T10:26:16.202Z,5.43
2023-04-21T10:28:42.735Z,10.03
2023-04-21T10:31:17.202Z,9.30
2023-04-21T10:33:58.840Z,10.73
2023-04-21T10:36:25.403Z,16.90
2023-04-21T10:38:55.281Z,5.80
2023-04-21T10:41:34.417Z,6.43
2023-04-21T10:44:21.382Z,7.77
2023-04-21T10:46:52.337Z,6.73
2023-04-21T10:49:18.796Z,8.23
2023-04-21T10:51:57.677Z,10.60
2023-04-21T10:54:25.982Z,6.90
2023-04-21T10:56:57.630Z,8.80
2023-04-21T10:59:24.748Z,15.20
2023-04-21T11:01:51.677Z,16.20
2023-04-21T11:04:20.849Z,8.13
2023-04-21T11:07:07.830Z,5.70
2023-04-21T11:09:34.974Z,4.70
2023-04-21T11:12:03.442Z,4.90
2023-04-21T11:14:30.075Z,8.30
2023-04-21T11:16:56.680Z,7.77
2023-04-21T11:19:25.118Z,16.70
2023-04-21T11:21:53.739Z,8.43
2023-04-21T11:24:21.579Z,6.90
2023-04-21T11:26:48.538Z,10.60
2023-04-21T11:29:15.556Z,9.83
2023-04-21T11:31:43.054Z,7.20
2023-04-21T11:34:09.563Z,14.57
2023-04-21T11:36:36.682Z,12.60
2023-04-21T11:39:10.433Z,10.10
2023-04-21T11:41:39.053Z,6.47
2023-04-21T11:44:05.696Z,12.13
2023-04-21T11:46:37.252Z,7.93
2023-04-21T11:49:04.877Z,6.13
2023-04-21T11:51:36.273Z,10.10
2023-04-21T11:54:04.453Z,14.40
2023-04-21T11:56:34.668Z,10.10
2023-04-21T11:59:06.403Z,11.17
2023-04-21T12:01:33.059Z,21.20
2023-04-21T12:03:59.751Z,10.67
2023-04-21T12:06:28.586Z,19.87
2023-04-21T12:08:56.789Z,15.13
2023-04-21T12:11:24.196Z,20.80
2023-04-21T12:13:51.016Z,16.17
2023-04-21T12:16:18.366Z,15.93
2023-04-21T12:18:44.918Z,17.17
2023-04-21T12:21:14.360Z,12.60
2023-04-21T12:23:40.810Z,17.90
2023-04-21T12:26:07.369Z,8.60
2023-04-21T12:28:34.172Z,6.60
2023-04-21T12:31:00.786Z,12.07
2023-04-21T12:33:27.414Z,12.63
2023-04-21T12:35:54.071Z,13.50
2023-04-21T12:38:21.100Z,8.33
2023-04-21T12:40:48.289Z,13.07
2023-04-21T12:43:14.860Z,11.33
2023-04-21T12:45:41.575Z,3.47
2023-04-21T12:48:08.205Z,13.30
2023-04-21T12:50:34.679Z,16.67
2023-04-21T12:53:01.141Z,12.00
2023-04-21T12:55:27.568Z,8.53
2023-04-21T12:57:54.096Z,8.07
2023-04-21T13:00:20.735Z,7.83
2023-04-21T13:02:47.498Z,8.20
2023-04-21T13:05:14.821Z,13.37
2023-04-21T13:07:41.568Z,6.73
2023-04-21T13:10:08.735Z,13.93
2023-04-21T13:12:35.644Z,9.13
2023-04-21T13:15:02.322Z,10.90
2023-04-21T13:17:29.010Z,8.10
2023-04-21T13:19:56.015Z,7.47
2023-04-21T13:22:22.632Z,7.23
2023-04-21T13:24:49.197Z,10.97
2023-04-21T13:27:15.901Z,8.83
2023-04-21T13:29:42.447Z,8.93
2023-04-21T13:32:09.260Z,8.30
2023-04-21T13:34:36.219Z,11.10
2023-04-21T13:37:02.719Z,13.30
2023-04-21T13:39:29.548Z,6.07
2023-04-21T13:41:56.720Z,5.93
2023-04-21T13:44:23.306Z,4.00
2023-04-21T13:46:52.335Z,5.20
2023-04-21T13:49:19.173Z,5.83
2023-04-21T13:51:45.666Z,11.07
2023-04-21T13:54:12.395Z,4.43
2023-04-21T13:56:38.962Z,2.53
2023-04-21T13:59:06.801Z,3.37
2023-04-21T14:01:33.349Z,4.65
2023-04-21T14:04:00.173Z,11.23
2023-04-21T14:06:28.106Z,3.27
2023-04-21T14:08:55.279Z,3.47
2023-04-21T14:11:27.537Z,4.10
2023-04-21T14:14:10.531Z,3.40
2023-04-21T14:16:37.480Z,3.23
2023-04-21T14:19:04.182Z,5.60
2023-04-21T14:21:31.689Z,7.90
2023-04-21T14:23:58.401Z,5.60
2023-04-21T14:26:25.026Z,5.53
2023-04-21T14:28:51.613Z,4.90
2023-04-21T14:31:20.391Z,6.13
2023-04-21T14:33:48.269Z,3.90
2023-04-21T14:36:14.887Z,5.20
2023-04-21T14:38:42.704Z,8.13
2023-04-21T14:41:09.603Z,3.10
2023-04-21T14:43:36.632Z,5.83
2023-04-21T14:46:03.616Z,3.43
2023-04-21T14:48:30.376Z,5.73
2023-04-21T14:50:57.973Z,5.40
2023-04-21T14:53:24.909Z,2.90
2023-04-21T14:55:52.984Z,3.37
2023-04-21T14:58:21.022Z,2.73
2023-04-21T15:00:49.340Z,2.90
2023-04-21T15:03:16.039Z,4.77
2023-04-21T15:05:43.134Z,2.50
2023-04-21T15:08:10.108Z,3.37
2023-04-21T15:10:36.699Z,4.63
2023-04-21T15:13:03.413Z,3.33
2023-04-21T15:15:30.004Z,3.00
2023-04-21T15:17:56.599Z,4.90
2023-04-21T15:20:36.539Z,2.90
2023-04-21T15:23:07.512Z,4.47
2023-04-21T15:25:34.093Z,5.03
2023-04-21T15:28:00.818Z,3.53
2023-04-21T15:30:27.516Z,4.37
2023-04-21T15:32:54.467Z,4.87
2023-04-21T15:35:21.008Z,8.77
2023-04-21T15:37:47.585Z,3.70
2023-04-21T15:40:14.296Z,5.80
2023-04-21T15:42:40.953Z,8.53
2023-04-21T15:45:08.414Z,5.00
2023-04-21T15:47:35.181Z,6.38
2023-04-21T15:50:39.462Z,8.10
2023-04-21T15:53:06.380Z,3.15
2023-04-21T15:55:33.279Z,3.57
2023-04-21T15:58:00.056Z,1.67
2023-04-21T16:00:26.840Z,2.47
2023-04-21T16:02:53.894Z,7.00
2023-04-21T16:05:22.255Z,3.70
2023-04-21T16:07:50.678Z,0.80
2023-04-21T16:10:17.469Z,0.80
2023-04-21T16:12:45.477Z,1.30
2023-04-21T16:15:23.888Z,1.03
2023-04-21T16:17:52.565Z,0.60
2023-04-21T16:20:19.419Z,7.03
2023-04-21T16:22:46.383Z,1.00
2023-04-21T16:25:14.281Z,0.90
2023-04-21T16:27:41.222Z,2.50
2023-04-21T16:30:08.767Z,1.70
2023-04-21T16:32:35.737Z,1.00
2023-04-21T16:35:07.816Z,1.10
2023-04-21T16:37:40.171Z,3.57
2023-04-21T16:40:07.571Z,1.87
2023-04-21T16:42:34.533Z,1.60
2023-04-21T16:45:03.512Z,1.63
2023-04-21T16:47:31.362Z,2.77
2023-04-21T16:49:58.067Z,2.10
2023-04-21T16:52:25.838Z,4.10
2023-04-21T16:54:52.607Z,2.17
2023-04-21T16:57:19.276Z,2.70
2023-04-21T16:59:46.488Z,1.83
2023-04-21T17:02:13.272Z,3.53
2023-04-21T17:04:40.399Z,3.40
2023-04-21T17:07:07.436Z,4.83
2023-04-21T17:09:34.045Z,3.23
2023-04-21T17:12:01.217Z,2.20
2023-04-21T17:14:27.810Z,2.10
2023-04-21T17:16:55.001Z,4.63
2023-04-21T17:19:22.079Z,3.20
2023-04-21T17:21:49.237Z,2.57
2023-04-21T17:24:15.804Z,2.70
2023-04-21T17:26:43.200Z,1.83
2023-04-21T17:29:09.813Z,10.10
2023-04-21T17:31:36.591Z,2.60
2023-04-21T17:34:03.673Z,4.50
2023-04-21T17:36:30.551Z,4.57
2023-04-21T17:38:58.205Z,2.53
2023-04-21T17:41:25.592Z,2.70
2023-04-21T17:43:53.228Z,2.87
2023-04-21T17:46:19.862Z,2.67
2023-04-21T17:48:46.449Z,2.43
2023-04-21T17:51:14.686Z,1.63
2023-04-21T17:53:42.237Z,2.23
2023-04-21T17:56:09.368Z,2.70
2023-04-21T17:58:35.990Z,3.40
2023-04-21T18:01:02.509Z,57.57
2023-04-21T18:03:29.294Z,46.03
2023-04-21T18:05:56.366Z,15.10
2023-04-21T18:08:22.981Z,3.57
2023-04-21T18:10:49.534Z,3.60
2023-04-21T18:13:16.314Z,2.80
2023-04-21T18:15:42.808Z,3.00
2023-04-21T18:18:09.735Z,2.57
2023-04-21T18:20:36.970Z,8.83
2023-04-21T18:23:03.521Z,2.80
2023-04-21T18:25:41.301Z,3.37
2023-04-21T18:28:10.936Z,2.30
2023-04-21T18:30:38.620Z,2.83
2023-04-21T18:33:05.721Z,3.33
2023-04-21T18:35:33.816Z,4.70
2023-04-21T18:38:00.729Z,4.47
2023-04-21T18:40:27.339Z,3.23
2023-04-21T18:42:59.242Z,1.90
2023-04-21T18:45:46.769Z,1.80
2023-04-21T18:48:17.280Z,1.50
2023-04-21T18:50:44.009Z,1.43
2023-04-21T18:53:10.942Z,2.53
2023-04-21T18:55:39.880Z,1.53
2023-04-21T18:58:10.270Z,1.60
2023-04-21T19:00:39.557Z,3.53
2023-04-21T19:03:06.799Z,2.40
2023-04-21T19:05:35.852Z,3.40
2023-04-21T19:08:02.551Z,1.10
2023-04-21T19:10:29.197Z,1.23
2023-04-21T19:12:55.770Z,2.03
2023-04-21T19:15:22.360Z,2.27
2023-04-21T19:17:49.114Z,4.03
2023-04-21T19:20:15.848Z,2.40
2023-04-21T19:22:42.543Z,4.90
2023-04-21T19:25:09.427Z,2.40
2023-04-21T19:27:36.187Z,2.10
2023-04-21T19:30:03.022Z,2.57
2023-04-21T19:32:30.847Z,2.60
2023-04-21T19:34:57.618Z,2.20
2023-04-21T19:37:26.093Z,4.97
2023-04-21T19:39:52.745Z,7.17
2023-04-21T19:42:19.679Z,3.90
2023-04-21T19:44:46.165Z,5.43
2023-04-21T19:47:12.870Z,4.23
2023-04-21T19:49:39.439Z,2.73
2023-04-21T19:52:06.092Z,3.03
2023-04-21T19:54:32.851Z,7.00
2023-04-21T19:56:59.560Z,3.07
2023-04-21T19:59:26.637Z,2.90
2023-04-21T20:01:53.449Z,5.20
2023-04-21T20:04:20.361Z,2.80
2023-04-21T20:06:47.058Z,2.97
2023-04-21T20:09:13.652Z,2.50
2023-04-21T20:11:41.407Z,4.20
2023-04-21T20:14:08.072Z,2.80
2023-04-21T20:16:35.362Z,3.03
2023-04-21T20:19:02.219Z,2.30
2023-04-21T20:21:28.887Z,2.73
2023-04-21T20:23:55.754Z,4.90
2023-04-21T20:26:23.018Z,5.50
2023-04-21T20:28:50.035Z,3.20
2023-04-21T20:31:19.007Z,3.50
2023-04-21T20:33:45.891Z,7.07
2023-04-21T20:36:12.588Z,2.90
2023-04-21T20:38:39.185Z,3.90
2023-04-21T20:41:06.643Z,4.43
2023-04-21T20:43:33.479Z,4.13
2023-04-21T20:46:01.395Z,29.10
2023-04-21T20:48:28.104Z,13.10
2023-04-21T20:50:54.688Z,9.73
2023-04-21T20:53:22.355Z,11.10
2023-04-21T20:55:48.921Z,5.70
2023-04-21T20:58:15.514Z,4.63
2023-04-21T21:00:42.041Z,6.57
2023-04-21T21:03:11.375Z,6.50
2023-04-21T21:05:38.417Z,4.20
2023-04-21T21:08:05.117Z,5.80
2023-04-21T21:10:31.716Z,6.07
2023-04-21T21:12:59.504Z,5.63
2023-04-21T21:15:31.119Z,6.50
2023-04-21T21:17:58.319Z,13.70
2023-04-21T21:20:24.853Z,4.87
2023-04-21T21:22:51.672Z,7.43
2023-04-21T21:25:18.146Z,4.77
2023-04-21T21:27:44.879Z,11.13
2023-04-21T21:30:11.790Z,12.53
2023-04-21T21:32:38.351Z,7.10
2023-04-21T21:35:06.658Z,8.90
2023-04-21T21:37:33.178Z,6.27
2023-04-21T21:39:59.627Z,8.73
2023-04-21T21:42:26.161Z,7.17
2023-04-21T21:44:52.626Z,12.83
2023-04-21T21:47:19.178Z,10.97
2023-04-21T21:49:45.804Z,10.27
2023-04-21T21:52:14.836Z,10.23
2023-04-21T21:54:41.368Z,11.03
2023-04-21T21:57:07.840Z,8.10
2023-04-21T21:59:34.440Z,16.07
2023-04-21T22:02:01.030Z,9.87
2023-04-21T22:04:27.765Z,13.10
2023-04-21T22:06:54.421Z,7.80
2023-04-21T22:09:21.507Z,9.17
2023-04-21T22:11:48.037Z,13.00
2023-04-21T22:14:21.843Z,9.80
2023-04-21T22:16:50.518Z,11.30
2023-04-21T22:19:18.980Z,8.47
2023-04-21T22:21:45.870Z,10.60
2023-04-21T22:24:12.754Z,14.53
2023-04-21T22:26:39.428Z,9.77
2023-04-21T22:29:06.026Z,11.73
2023-04-21T22:31:32.652Z,14.30
2023-04-21T22:33:59.340Z,9.27
2023-04-21T22:36:26.168Z,9.37
2023-04-21T22:38:52.805Z,11.13
2023-04-21T22:41:19.507Z,18.63
2023-04-21T22:43:46.275Z,9.00
2023-04-21T22:46:12.830Z,13.30
2023-04-21T22:48:39.712Z,13.40
2023-04-21T22:51:07.130Z,10.67
2023-04-21T22:53:33.732Z,10.47
2023-04-21T22:56:00.224Z,12.60
2023-04-21T22:58:26.796Z,13.90
2023-04-21T23:00:53.396Z,9.70
2023-04-21T23:03:20.201Z,12.27
2023-04-21T23:05:46.834Z,9.43
2023-04-21T23:08:13.440Z,13.03
2023-04-21T23:10:40.294Z,12.53
2023-04-21T23:13:06.788Z,12.40
2023-04-21T23:15:33.333Z,12.37
2023-04-21T23:17:59.834Z,13.97
2023-04-21T23:20:26.961Z,11.00
2023-04-21T23:22:53.899Z,20.40
2023-04-21T23:25:20.835Z,15.40
2023-04-21T23:27:47.595Z,16.40
2023-04-21T23:30:14.133Z,17.67
2023-04-21T23:32:41.506Z,16.90
2023-04-21T23:35:09.380Z,16.00
2023-04-21T23:37:36.072Z,13.83
2023-04-21T23:40:02.912Z,15.97
2023-04-21T23:42:29.551Z,18.10
2023-04-21T23:44:56.185Z,18.60
2023-04-21T23:47:22.742Z,16.93
2023-04-21T23:49:49.239Z,17.63
2023-04-21T23:52:15.904Z,19.17
2023-04-21T23:54:42.362Z,21.07
2023-04-21T23:57:08.889Z,23.37
2023-04-21T23:59:35.479Z,16.47
